createdAt,value
2018-10-09T00:02:22.430Z,12.79
2018-10-09T00:04:53.110Z,12.61
2018-10-09T00:07:23.056Z,12.54
2018-10-09T00:09:55.683Z,12.67
2018-10-09T00:12:25.378Z,12.75
2018-10-09T00:14:55.387Z,12.73
2018-10-09T00:17:25.195Z,12.56
2018-10-09T00:19:54.834Z,12.42
2018-10-09T00:22:24.259Z,12.56
2018-10-09T00:24:53.855Z,12.61
2018-10-09T00:27:24.467Z,12.52
2018-10-09T00:29:54.348Z,12.55
2018-10-09T00:32:24.151Z,12.50
2018-10-09T00:34:54.996Z,12.47
2018-10-09T00:37:24.845Z,12.43
2018-10-09T00:39:54.388Z,12.44
2018-10-09T00:42:24.464Z,12.26
2018-10-09T00:44:54.715Z,12.31
2018-10-09T00:47:24.358Z,12.39
2018-10-09T00:49:54.428Z,12.21
2018-10-09T00:52:24.452Z,12.01
2018-10-09T00:54:54.542Z,11.98
2018-10-09T00:57:26.116Z,12.07
2018-10-09T00:59:56.152Z,12.01
2018-10-09T01:05:03.428Z,11.66
2018-10-09T01:07:33.355Z,11.60
2018-10-09T01:10:03.209Z,11.73
2018-10-09T01:12:34.666Z,11.91
2018-10-09T01:15:07.727Z,12.02
2018-10-09T01:17:37.993Z,12.07
2018-10-09T01:20:11.547Z,12.07
2018-10-09T01:22:55.179Z,12.16
2018-10-09T01:25:24.772Z,12.28
2018-10-09T01:27:54.433Z,12.34
2018-10-09T01:30:25.142Z,12.17
2018-10-09T01:32:54.711Z,12.12
2018-10-09T01:35:33.171Z,12.17
2018-10-09T01:38:02.992Z,12.14
2018-10-09T01:40:37.172Z,12.05
2018-10-09T01:43:07.313Z,12.11
2018-10-09T01:45:37.292Z,12.23
2018-10-09T01:48:07.340Z,12.22
2018-10-09T01:50:37.343Z,12.10
2018-10-09T01:53:07.075Z,12.14
2018-10-09T01:55:36.983Z,12.21
2018-10-09T01:58:14.147Z,12.27
2018-10-09T02:00:47.442Z,12.31
2018-10-09T02:03:18.021Z,12.20
2018-10-09T02:05:47.833Z,12.11
2018-10-09T02:08:21.806Z,12.06
2018-10-09T02:10:51.373Z,12.08
2018-10-09T02:13:21.023Z,12.15
2018-10-09T02:15:50.837Z,12.16
2018-10-09T02:18:20.532Z,11.94
2018-10-09T02:20:50.197Z,11.85
2018-10-09T02:23:19.789Z,11.71
2018-10-09T02:25:50.496Z,11.73
2018-10-09T02:28:19.885Z,11.85
2018-10-09T02:30:59.454Z,11.96
2018-10-09T02:33:28.995Z,12.04
2018-10-09T02:35:58.643Z,12.10
2018-10-09T02:38:28.185Z,12.11
2018-10-09T02:40:57.734Z,12.04
2018-10-09T02:43:27.586Z,11.99
2018-10-09T02:45:58.117Z,11.86
2018-10-09T02:48:29.572Z,11.63
2018-10-09T02:50:59.233Z,11.45
2018-10-09T02:53:29.539Z,11.45
2018-10-09T02:55:59.139Z,11.43
2018-10-09T02:58:28.703Z,11.39
2018-10-09T03:00:58.753Z,11.34
2018-10-09T03:03:28.250Z,11.39
2018-10-09T03:05:58.449Z,11.34
2018-10-09T03:08:27.956Z,11.26
2018-10-09T03:10:57.694Z,11.18
2018-10-09T03:13:30.496Z,11.18
2018-10-09T03:16:00.333Z,11.21
2018-10-09T03:18:31.823Z,11.16
2018-10-09T03:21:01.756Z,11.28
2018-10-09T03:23:31.211Z,11.31
2018-10-09T03:26:01.225Z,11.42
2018-10-09T03:28:30.838Z,11.50
2018-10-09T03:31:06.630Z,11.46
2018-10-09T03:33:37.387Z,11.45
2018-10-09T03:36:06.899Z,11.56
2018-10-09T03:38:36.382Z,11.31
2018-10-09T03:41:05.855Z,11.72
2018-10-09T03:43:35.323Z,11.53
2018-10-09T03:46:07.770Z,11.53
2018-10-09T03:48:39.442Z,11.65
2018-10-09T03:51:09.555Z,11.78
2018-10-09T03:53:39.990Z,11.83
2018-10-09T03:56:09.821Z,11.91
2018-10-09T03:58:39.530Z,11.83
2018-10-09T04:01:09.653Z,11.74
2018-10-09T04:03:40.220Z,11.76
2018-10-09T04:06:10.157Z,11.80
2018-10-09T04:08:39.893Z,11.63
2018-10-09T04:11:10.116Z,11.69
2018-10-09T04:13:39.730Z,11.65
2018-10-09T04:16:10.694Z,11.59
2018-10-09T04:18:42.418Z,11.58
2018-10-09T04:21:18.063Z,11.63
2018-10-09T04:23:48.324Z,11.68
2018-10-09T04:26:18.798Z,11.74
2018-10-09T04:28:48.333Z,11.81
2018-10-09T04:31:18.569Z,11.79
2018-10-09T04:33:48.941Z,11.72
2018-10-09T04:36:19.697Z,11.83
2018-10-09T04:38:52.057Z,11.88
2018-10-09T04:41:22.445Z,11.88
2018-10-09T04:43:52.024Z,11.95
2018-10-09T04:46:22.592Z,12.01
2018-10-09T04:48:52.937Z,11.98
2018-10-09T04:51:24.239Z,12.04
2018-10-09T04:53:55.045Z,12.06
2018-10-09T04:56:24.715Z,12.07
2018-10-09T04:58:54.551Z,12.08
2018-10-09T05:01:24.519Z,11.96
2018-10-09T05:03:54.225Z,11.87
2018-10-09T05:06:23.757Z,11.94
2018-10-09T05:11:20.000Z,11.23
2018-10-09T05:13:49.569Z,11.88
2018-10-09T05:16:19.696Z,11.88
2018-10-09T05:19:19.746Z,11.96
2018-10-09T05:21:49.520Z,12.07
2018-10-09T05:24:19.688Z,12.10
2018-10-09T05:26:49.260Z,12.21
2018-10-09T05:29:18.759Z,12.24
2018-10-09T05:31:48.994Z,12.16
2018-10-09T05:34:22.167Z,12.13
2018-10-09T05:36:52.261Z,11.98
2018-10-09T05:39:21.953Z,12.01
2018-10-09T05:41:54.758Z,12.06
2018-10-09T05:44:24.527Z,12.01
2018-10-09T05:46:54.222Z,12.08
2018-10-09T05:49:26.434Z,12.12
2018-10-09T05:51:56.470Z,12.17
2018-10-09T05:54:27.927Z,12.06
2018-10-09T05:57:04.001Z,11.95
2018-10-09T05:59:35.391Z,12.05
2018-10-09T06:02:08.056Z,11.98
2018-10-09T06:04:41.479Z,11.80
2018-10-09T06:07:12.241Z,11.80
2018-10-09T06:09:45.836Z,11.83
2018-10-09T06:12:17.191Z,11.92
2018-10-09T06:14:46.898Z,11.94
2018-10-09T06:17:18.065Z,11.91
2018-10-09T06:19:51.203Z,11.84
2018-10-09T06:22:24.676Z,11.74
2018-10-09T06:27:39.609Z,11.84
2018-10-09T06:30:16.244Z,12.10
2018-10-09T06:32:46.711Z,12.23
2018-10-09T06:35:16.358Z,12.26
2018-10-09T06:37:47.234Z,12.10
2018-10-09T06:40:17.884Z,12.12
2018-10-09T06:42:52.220Z,12.27
2018-10-09T06:45:25.378Z,12.46
2018-10-09T06:48:01.795Z,12.61
2018-10-09T06:50:33.350Z,12.87
2018-10-09T06:53:04.390Z,13.12
2018-10-09T06:55:36.115Z,13.37
2018-10-09T06:58:10.012Z,13.58
2018-10-09T07:00:42.745Z,13.79
2018-10-09T07:03:16.778Z,13.92
2018-10-09T07:05:48.241Z,14.04
2018-10-09T07:08:19.088Z,13.74
2018-10-09T07:10:50.174Z,13.60
2018-10-09T07:13:20.726Z,13.69
2018-10-09T07:15:52.337Z,13.53
2018-10-09T07:18:21.886Z,13.53
2018-10-09T07:20:51.385Z,13.52
2018-10-09T07:23:21.626Z,13.65
2018-10-09T07:25:52.291Z,13.84
2018-10-09T07:28:23.618Z,13.95
2018-10-09T07:31:00.367Z,14.16
2018-10-09T07:33:31.208Z,14.49
2018-10-09T07:36:03.669Z,15.03
2018-10-09T07:38:35.287Z,15.51
2018-10-09T07:41:07.398Z,15.78
2018-10-09T07:43:38.435Z,15.87
2018-10-09T07:46:10.351Z,15.78
2018-10-09T07:48:42.588Z,15.88
2018-10-09T07:51:12.898Z,15.87
2018-10-09T07:53:42.996Z,15.71
2018-10-09T07:56:14.075Z,15.70
2018-10-09T07:58:49.697Z,15.84
2018-10-09T08:01:20.300Z,15.88
2018-10-09T08:03:51.554Z,15.81
2018-10-09T08:06:23.155Z,15.92
2018-10-09T08:08:53.267Z,15.91
2018-10-09T08:11:25.868Z,15.58
2018-10-09T08:13:56.777Z,15.80
2018-10-09T08:16:28.052Z,15.91
2018-10-09T08:19:00.140Z,16.12
2018-10-09T08:21:29.928Z,16.58
2018-10-09T08:24:00.252Z,16.93
2018-10-09T08:26:32.364Z,17.40
2018-10-09T08:29:01.898Z,17.71
2018-10-09T08:31:34.581Z,17.70
2018-10-09T08:34:05.395Z,17.89
2018-10-09T08:36:35.207Z,18.09
2018-10-09T08:39:08.585Z,18.58
2018-10-09T08:41:39.681Z,18.90
2018-10-09T08:44:09.974Z,18.94
2018-10-09T08:46:42.730Z,18.83
2018-10-09T08:49:16.446Z,19.01
2018-10-09T08:51:46.732Z,18.97
2018-10-09T08:54:24.729Z,19.00
2018-10-09T08:56:56.413Z,19.29
2018-10-09T08:59:25.926Z,19.75
2018-10-09T09:01:57.416Z,19.32
2018-10-09T09:04:31.656Z,18.21
2018-10-09T09:07:01.241Z,19.22
2018-10-09T09:09:31.564Z,19.70
2018-10-09T09:12:06.566Z,20.41
2018-10-09T09:14:38.027Z,21.29
2018-10-09T09:17:07.559Z,21.98
2018-10-09T09:19:37.621Z,21.75
2018-10-09T09:22:08.735Z,21.69
2018-10-09T09:24:38.528Z,21.47
2018-10-09T09:27:09.980Z,21.13
2018-10-09T09:29:40.370Z,20.22
2018-10-09T09:32:12.301Z,20.56
2018-10-09T09:34:44.111Z,20.45
2018-10-09T09:37:22.364Z,20.76
2018-10-09T09:39:51.907Z,21.00
2018-10-09T09:42:23.110Z,21.17
2018-10-09T09:44:53.369Z,21.56
2018-10-09T09:47:23.146Z,21.89
2018-10-09T09:49:53.846Z,21.85
2018-10-09T09:52:24.575Z,21.85
2018-10-09T09:54:56.684Z,21.75
2018-10-09T09:57:32.556Z,21.40
2018-10-09T10:00:26.191Z,20.87
2018-10-09T10:03:21.965Z,20.99
2018-10-09T10:05:54.089Z,21.46
2018-10-09T10:08:25.665Z,20.07
2018-10-09T10:11:09.541Z,21.63
2018-10-09T10:13:42.004Z,21.75
2018-10-09T10:16:19.500Z,22.15
2018-10-09T10:18:57.172Z,22.62
2018-10-09T10:21:29.576Z,23.71
2018-10-09T10:24:01.778Z,23.98
2018-10-09T10:26:32.103Z,23.57
2018-10-09T10:29:15.963Z,24.59
2018-10-09T10:31:47.593Z,24.13
2018-10-09T10:34:20.301Z,24.81
2018-10-09T10:36:52.082Z,25.60
2018-10-09T10:39:27.681Z,26.27
2018-10-09T10:42:01.166Z,26.37
2018-10-09T10:44:38.078Z,26.92
2018-10-09T10:47:22.917Z,26.92
2018-10-09T10:49:57.866Z,26.79
2018-10-09T10:52:28.735Z,26.02
2018-10-09T10:55:01.554Z,25.23
2018-10-09T10:57:32.290Z,25.39
2018-10-09T11:00:14.872Z,25.87
2018-10-09T11:02:45.330Z,26.58
2018-10-09T11:05:16.009Z,26.65
2018-10-09T11:07:48.084Z,27.17
2018-10-09T11:10:19.204Z,26.89
2018-10-09T11:12:49.652Z,27.23
2018-10-09T11:15:20.085Z,27.30
2018-10-09T11:17:50.622Z,27.06
2018-10-09T11:20:21.456Z,27.77
2018-10-09T11:22:53.737Z,27.99
2018-10-09T11:25:30.215Z,27.75
2018-10-09T11:28:04.635Z,27.72
2018-10-09T11:30:36.957Z,26.45
2018-10-09T11:33:07.959Z,26.77
2018-10-09T11:35:37.890Z,26.67
2018-10-09T11:38:25.080Z,26.64
2018-10-09T11:40:59.774Z,26.93
2018-10-09T11:43:31.671Z,26.96
2018-10-09T11:46:05.453Z,26.77
2018-10-09T11:48:41.476Z,26.88
2018-10-09T11:51:15.970Z,26.92
2018-10-09T11:53:47.878Z,26.54
2018-10-09T11:56:21.636Z,27.26
2018-10-09T11:58:52.057Z,27.94
2018-10-09T12:01:26.157Z,28.32
2018-10-09T12:04:00.403Z,28.19
2018-10-09T12:06:32.227Z,28.30
2018-10-09T12:09:03.822Z,28.21
2018-10-09T12:11:34.770Z,27.73
2018-10-09T12:14:05.297Z,27.96
2018-10-09T12:16:35.676Z,28.38
2018-10-09T12:19:05.240Z,28.74
2018-10-09T12:21:37.504Z,28.80
2018-10-09T12:24:09.962Z,28.23
2018-10-09T12:26:42.368Z,28.28
2018-10-09T12:29:12.278Z,28.04
2018-10-09T12:31:42.671Z,28.47
2018-10-09T12:34:12.787Z,28.72
2018-10-09T12:36:45.105Z,28.83
2018-10-09T12:39:29.616Z,28.81
2018-10-09T12:42:01.515Z,28.25
2018-10-09T12:44:37.497Z,28.09
2018-10-09T12:47:14.599Z,27.48
2018-10-09T12:49:45.240Z,27.68
2018-10-09T12:52:16.816Z,27.50
2018-10-09T12:57:32.135Z,27.64
2018-10-09T13:00:09.033Z,27.66
2018-10-09T13:02:39.755Z,27.83
2018-10-09T13:05:11.383Z,27.74
2018-10-09T13:07:41.540Z,28.08
2018-10-09T13:10:18.520Z,28.13
2018-10-09T13:12:48.356Z,28.11
2018-10-09T13:15:30.052Z,28.14
2018-10-09T13:18:04.714Z,28.27
2018-10-09T13:20:37.090Z,28.17
2018-10-09T13:23:15.148Z,28.38
2018-10-09T13:25:48.044Z,28.43
2018-10-09T13:28:18.955Z,28.30
2018-10-09T13:30:49.533Z,27.75
2018-10-09T13:33:19.712Z,27.54
2018-10-09T13:38:39.638Z,27.20
2018-10-09T13:41:15.420Z,27.04
2018-10-09T13:43:51.798Z,26.82
2018-10-09T13:46:24.844Z,25.75
2018-10-09T13:48:57.733Z,25.24
2018-10-09T13:51:28.795Z,25.32
2018-10-09T13:54:02.456Z,25.62
2018-10-09T13:56:34.312Z,25.82
2018-10-09T13:59:04.184Z,25.67
2018-10-09T14:01:36.257Z,25.76
2018-10-09T14:04:06.278Z,25.71
2018-10-09T14:06:38.000Z,25.51
2018-10-09T14:09:10.034Z,25.28
2018-10-09T14:11:40.824Z,25.37
2018-10-09T14:14:13.053Z,25.45
2018-10-09T14:16:44.770Z,25.26
2018-10-09T14:19:14.330Z,25.31
2018-10-09T14:21:45.106Z,25.23
2018-10-09T14:24:15.521Z,25.21
2018-10-09T14:26:46.862Z,25.41
2018-10-09T14:29:23.802Z,25.34
2018-10-09T14:31:54.811Z,25.21
2018-10-09T14:34:29.469Z,25.21
2018-10-09T14:36:59.642Z,24.95
2018-10-09T14:39:29.971Z,25.09
2018-10-09T14:42:00.151Z,25.29
2018-10-09T14:44:32.705Z,25.37
2018-10-09T14:47:05.622Z,25.21
2018-10-09T14:49:36.133Z,25.43
2018-10-09T14:52:09.686Z,25.28
2018-10-09T14:54:42.862Z,25.27
2018-10-09T14:57:15.435Z,25.33
2018-10-09T14:59:50.041Z,25.16
2018-10-09T15:02:20.567Z,25.19
2018-10-09T15:04:52.059Z,24.97
2018-10-09T15:07:21.996Z,24.86
2018-10-09T15:09:55.791Z,24.81
2018-10-09T15:12:31.093Z,24.69
2018-10-09T15:15:15.013Z,24.88
2018-10-09T15:17:45.354Z,25.00
2018-10-09T15:20:27.450Z,25.05
2018-10-09T15:23:00.342Z,24.66
2018-10-09T15:25:35.856Z,24.73
2018-10-09T15:28:07.632Z,24.77
2018-10-09T15:30:42.558Z,24.52
2018-10-09T15:33:14.483Z,24.52
2018-10-09T15:35:44.638Z,24.58
2018-10-09T15:38:15.322Z,24.59
2018-10-09T15:40:53.453Z,24.68
2018-10-09T15:43:36.347Z,24.57
2018-10-09T15:46:13.038Z,24.70
2018-10-09T15:49:00.148Z,24.75
2018-10-09T15:51:36.677Z,24.79
2018-10-09T15:54:11.354Z,23.06
2018-10-09T15:56:42.739Z,24.66
2018-10-09T15:59:19.843Z,24.20
2018-10-09T16:04:44.534Z,24.34
2018-10-09T16:07:18.799Z,24.21
2018-10-09T16:09:59.208Z,24.25
2018-10-09T16:12:38.249Z,24.26
2018-10-09T16:15:19.862Z,24.25
2018-10-09T16:17:54.011Z,24.15
2018-10-09T16:20:35.443Z,24.09
2018-10-09T16:23:08.237Z,23.99
2018-10-09T16:25:54.569Z,23.94
2018-10-09T16:28:24.688Z,23.96
2018-10-09T16:30:59.679Z,23.97
2018-10-09T16:33:29.502Z,23.88
2018-10-09T16:36:05.656Z,23.26
2018-10-09T16:38:36.429Z,23.65
2018-10-09T16:41:08.200Z,23.51
2018-10-09T16:43:41.235Z,23.35
2018-10-09T16:46:14.205Z,23.37
2018-10-09T16:51:21.800Z,23.35
2018-10-09T16:54:04.031Z,23.29
2018-10-09T16:56:34.913Z,23.23
2018-10-09T16:59:05.923Z,23.07
2018-10-09T17:01:37.255Z,23.03
2018-10-09T17:04:10.666Z,23.01
2018-10-09T17:09:30.236Z,22.91
2018-10-09T17:12:00.783Z,22.85
2018-10-09T17:14:32.517Z,22.77
2018-10-09T17:17:07.452Z,22.68
2018-10-09T17:19:39.202Z,22.58
2018-10-09T17:22:19.245Z,22.47
2018-10-09T17:25:04.601Z,22.40
2018-10-09T17:27:45.963Z,22.35
2018-10-09T17:30:19.138Z,22.28
2018-10-09T17:32:51.659Z,22.18
2018-10-09T17:35:25.622Z,22.01
2018-10-09T17:37:56.525Z,21.93
2018-10-09T17:40:30.443Z,21.87
2018-10-09T17:43:02.111Z,21.83
2018-10-09T17:45:34.434Z,21.65
2018-10-09T17:48:05.487Z,21.44
2018-10-09T17:50:39.325Z,21.35
2018-10-09T17:53:10.088Z,21.32
2018-10-09T17:55:40.487Z,21.30
2018-10-09T17:58:10.271Z,21.14
2018-10-09T18:00:44.982Z,21.13
2018-10-09T18:03:28.022Z,21.09
2018-10-09T18:06:01.398Z,20.94
2018-10-09T18:08:33.694Z,20.85
2018-10-09T18:11:05.942Z,20.89
2018-10-09T18:13:36.659Z,20.83
2018-10-09T18:16:11.069Z,19.85
2018-10-09T18:18:42.340Z,20.70
2018-10-09T18:21:13.499Z,20.65
2018-10-09T18:23:45.964Z,20.58
2018-10-09T18:28:51.230Z,20.44
2018-10-09T18:31:34.133Z,20.47
2018-10-09T18:34:06.671Z,20.46
2018-10-09T18:36:37.508Z,20.11
2018-10-09T18:39:14.258Z,20.43
2018-10-09T18:41:47.398Z,20.39
2018-10-09T18:44:18.006Z,20.36
2018-10-09T18:46:49.269Z,20.29
2018-10-09T18:49:21.047Z,20.24
2018-10-09T18:51:51.647Z,20.16
2018-10-09T18:54:23.803Z,20.03
2018-10-09T18:56:57.309Z,19.97
2018-10-09T18:59:30.091Z,19.95
2018-10-09T19:02:05.560Z,19.93
2018-10-09T19:04:40.561Z,19.86
2018-10-09T19:07:15.356Z,19.82
2018-10-09T19:09:45.769Z,19.77
2018-10-09T19:12:18.862Z,19.72
2018-10-09T19:14:49.931Z,19.48
2018-10-09T19:17:25.124Z,19.60
2018-10-09T19:19:55.573Z,19.41
2018-10-09T19:22:26.181Z,19.39
2018-10-09T19:24:55.725Z,19.41
2018-10-09T19:27:37.209Z,19.20
2018-10-09T19:30:22.699Z,19.40
2018-10-09T19:32:54.847Z,19.35
2018-10-09T19:35:28.267Z,19.34
2018-10-09T19:38:01.409Z,19.33
2018-10-09T19:40:34.296Z,19.29
2018-10-09T19:43:11.234Z,19.23
2018-10-09T19:45:47.366Z,19.20
2018-10-09T19:48:18.304Z,19.17
2018-10-09T19:50:50.297Z,19.06
2018-10-09T19:53:24.606Z,19.06
2018-10-09T19:55:58.723Z,18.97
2018-10-09T19:58:34.839Z,18.94
2018-10-09T20:01:18.571Z,18.89
2018-10-09T20:03:50.348Z,18.88
2018-10-09T20:06:22.480Z,18.90
2018-10-09T20:09:00.292Z,18.88
2018-10-09T20:11:34.064Z,18.86
2018-10-09T20:14:05.493Z,18.81
2018-10-09T20:16:38.639Z,18.76
2018-10-09T20:19:19.540Z,18.75
2018-10-09T20:21:54.210Z,18.74
2018-10-09T20:24:25.879Z,18.70
2018-10-09T20:26:58.386Z,18.68
2018-10-09T20:29:37.488Z,18.63
2018-10-09T20:32:11.158Z,18.63
2018-10-09T20:34:43.229Z,18.63
2018-10-09T20:37:13.739Z,18.59
2018-10-09T20:39:44.389Z,18.54
2018-10-09T20:42:15.684Z,18.53
2018-10-09T20:44:46.731Z,18.50
2018-10-09T20:47:50.250Z,18.46
2018-10-09T20:50:24.642Z,18.39
2018-10-09T20:52:57.121Z,18.35
2018-10-09T20:55:29.172Z,18.29
2018-10-09T20:58:00.483Z,18.28
2018-10-09T21:00:31.577Z,18.21
2018-10-09T21:03:01.365Z,18.15
2018-10-09T21:05:32.683Z,18.12
2018-10-09T21:08:08.283Z,18.10
2018-10-09T21:10:45.395Z,18.08
2018-10-09T21:13:20.570Z,18.00
2018-10-09T21:15:53.721Z,17.91
2018-10-09T21:18:27.530Z,17.90
2018-10-09T21:20:57.829Z,17.93
2018-10-09T21:23:27.715Z,17.96
2018-10-09T21:25:57.915Z,17.86
2018-10-09T21:28:34.333Z,17.84
2018-10-09T21:31:05.904Z,17.78
2018-10-09T21:33:36.784Z,17.73
2018-10-09T21:36:06.767Z,17.74
2018-10-09T21:41:30.568Z,17.71
2018-10-09T21:44:00.728Z,17.65
2018-10-09T21:46:32.391Z,17.59
2018-10-09T21:49:02.505Z,17.54
2018-10-09T21:51:33.166Z,17.44
2018-10-09T21:54:03.169Z,17.36
2018-10-09T21:56:33.382Z,17.30
2018-10-09T21:59:03.706Z,17.25
2018-10-09T22:01:33.845Z,17.20
2018-10-09T22:04:06.339Z,17.17
2018-10-09T22:06:39.301Z,17.11
2018-10-09T22:09:09.616Z,17.08
2018-10-09T22:11:39.295Z,17.06
2018-10-09T22:14:09.836Z,16.99
2018-10-09T22:16:41.121Z,16.97
2018-10-09T22:19:13.306Z,16.99
2018-10-09T22:21:45.072Z,16.98
2018-10-09T22:24:15.303Z,17.02
2018-10-09T22:26:45.543Z,17.00
2018-10-09T22:29:15.494Z,17.03
2018-10-09T22:31:48.713Z,17.01
2018-10-09T22:34:18.514Z,16.99
2018-10-09T22:36:49.430Z,16.96
2018-10-09T22:39:19.404Z,16.91
2018-10-09T22:44:27.932Z,16.82
2018-10-09T22:46:58.342Z,16.76
2018-10-09T22:49:28.882Z,16.75
2018-10-09T22:52:00.213Z,16.75
2018-10-09T22:54:29.973Z,16.71
2018-10-09T22:56:59.631Z,16.63
2018-10-09T22:59:33.952Z,16.57
2018-10-09T23:04:51.439Z,16.45
2018-10-09T23:07:22.380Z,16.43
2018-10-09T23:09:53.266Z,16.40
2018-10-09T23:14:55.165Z,16.35
2018-10-09T23:17:25.173Z,16.35
2018-10-09T23:19:55.135Z,16.30
2018-10-09T23:22:25.521Z,16.25
2018-10-09T23:24:56.449Z,16.22
2018-10-09T23:27:26.470Z,16.26
2018-10-09T23:29:56.360Z,16.23
2018-10-09T23:32:26.110Z,15.80
2018-10-09T23:34:56.249Z,16.20
2018-10-09T23:37:26.357Z,16.20
2018-10-09T23:39:56.205Z,16.21
2018-10-09T23:42:26.760Z,16.21
2018-10-09T23:44:59.238Z,16.17
2018-10-09T23:47:29.137Z,16.16
2018-10-09T23:49:59.710Z,16.16
2018-10-09T23:52:29.318Z,16.15
2018-10-09T23:54:58.939Z,16.15
2018-10-09T23:57:28.935Z,16.13
2018-10-09T23:59:58.499Z,16.15
